Time;durP1;ratioP1;P1;durP2;ratioP2;P2;SDS_P1;SDS_P2;PMS_P1;PMS_P2;Temp;Humidity;BMP_temperature;BMP_pressure;BME280_temperature;BME280_humidity;BME280_pressure;Samples;Min_cycle;Max_cycle;Signal;HPM_P1;HPM_P2
2023/10/14 00:01:13;;;;;;;6.75;0.80;;;13.90;99.90;;;;;;5030294;28;20038;-85
2023/10/14 00:03:43;;;;;;;5.43;0.82;;;13.90;99.90;;;;;;5039207;28;20076;-86
2023/10/14 00:06:12;;;;;;;5.25;1.02;;;13.90;99.90;;;;;;5043294;28;20077;-85
2023/10/14 00:08:54;;;;;;;2.38;0.82;;;13.90;99.90;;;;;;5049327;28;20045;-86
2023/10/14 00:11:22;;;;;;;6.65;0.90;;;13.80;99.90;;;;;;5066653;28;20076;-86
2023/10/14 00:13:49;;;;;;;2.35;0.65;;;13.80;99.90;;;;;;5050085;28;20045;-85
2023/10/14 00:16:35;;;;;;;6.30;0.80;;;13.80;99.90;;;;;;5042355;28;20091;-86
2023/10/14 00:19:09;;;;;;;;;;;13.60;99.90;;;;;;5067313;28;20403;-86
2023/10/14 00:21:36;;;;;;;3.78;0.77;;;13.60;99.90;;;;;;5053330;28;19917;-85
2023/10/14 00:24:06;;;;;;;5.30;1.00;;;13.60;99.90;;;;;;5066817;28;20048;-86
2023/10/14 00:26:33;;;;;;;5.97;0.98;;;13.60;99.90;;;;;;5031983;28;20045;-86
2023/10/14 00:31:43;;;;;;;8.38;1.52;;;13.50;99.90;;;;;;5047325;28;20411;-86
2023/10/14 00:34:10;;;;;;;10.35;1.17;;;13.50;99.90;;;;;;5039700;28;20056;-86
2023/10/14 00:36:37;;;;;;;4.78;0.90;;;13.40;99.90;;;;;;5049727;28;20038;-85
2023/10/14 00:39:14;;;;;;;6.43;1.08;;;13.30;99.90;;;;;;5049802;28;20042;-86
2023/10/14 00:41:43;;;;;;;7.30;1.02;;;13.20;99.90;;;;;;5046420;28;20517;-85
2023/10/14 00:44:10;;;;;;;8.95;0.98;;;13.10;99.90;;;;;;5054919;28;20041;-85
2023/10/14 00:46:42;;;;;;;6.95;1.25;;;13.00;99.90;;;;;;5048768;28;20042;-85
2023/10/14 00:49:11;;;;;;;7.05;1.00;;;13.00;99.90;;;;;;5036814;28;20124;-86
2023/10/14 00:51:44;;;;;;;7.55;2.03;;;13.00;99.90;;;;;;5041900;28;20033;-86
2023/10/14 00:54:12;;;;;;;9.98;1.30;;;12.90;99.90;;;;;;5061221;28;20045;-86
2023/10/14 00:56:47;;;;;;;4.85;1.15;;;12.90;99.90;;;;;;5041027;28;20111;-86
2023/10/14 00:59:15;;;;;;;9.38;1.35;;;12.90;99.90;;;;;;5062160;28;20068;-86
2023/10/14 01:04:21;;;;;;;;;;;12.90;99.90;;;;;;5057948;28;20049;-85
2023/10/14 01:07:31;;;;;;;5.55;1.23;;;12.90;99.90;;;;;;5066118;28;20275;-86
2023/10/14 01:14:52;;;;;;;10.00;1.60;;;12.70;99.90;;;;;;5061122;28;20491;-86
2023/10/14 01:17:29;;;;;;;6.85;1.58;;;12.70;99.90;;;;;;5059013;28;20426;-85
2023/10/14 01:19:59;;;;;;;5.60;1.40;;;12.60;99.90;;;;;;5039015;28;20038;-86
2023/10/14 01:22:27;;;;;;;7.88;1.75;;;12.60;99.90;;;;;;5046178;28;20048;-85
2023/10/14 01:24:55;;;;;;;7.40;1.30;;;12.60;99.90;;;;;;5053172;28;20044;-85
2023/10/14 01:27:25;;;;;;;11.13;1.40;;;12.50;99.90;;;;;;5043196;28;20045;-85
2023/10/14 01:29:52;;;;;;;7.35;1.83;;;12.50;99.90;;;;;;5052378;28;20120;-86
2023/10/14 01:33:12;;;;;;;10.75;1.58;;;12.40;99.90;;;;;;5033306;28;20129;-86
2023/10/14 01:35:24;;;;;;;10.13;1.20;;;12.40;99.90;;;;;;5046972;28;20118;-86
2023/10/14 01:37:52;;;;;;;7.43;1.48;;;12.30;99.90;;;;;;5040224;28;20034;-86
2023/10/14 01:43:15;;;;;;;11.10;1.98;;;12.30;99.90;;;;;;5069253;28;20048;-86
2023/10/14 01:45:59;;;;;;;8.98;1.50;;;12.30;99.90;;;;;;5037941;28;20045;-86
2023/10/14 01:48:30;;;;;;;7.25;1.67;;;12.30;99.90;;;;;;5032909;28;20416;-86
2023/10/14 01:50:58;;;;;;;9.80;1.52;;;12.20;99.90;;;;;;5046273;28;20120;-86
2023/10/14 01:53:32;;;;;;;8.70;1.52;;;12.30;99.90;;;;;;5035221;28;20053;-86
2023/10/14 01:56:00;;;;;;;11.05;1.58;;;12.10;99.90;;;;;;5035352;28;20714;-86
2023/10/14 02:03:43;;;;;;;11.70;1.92;;;12.00;99.90;;;;;;5058274;28;20065;-85
2023/10/14 02:06:16;;;;;;;11.20;1.70;;;12.00;99.90;;;;;;5032824;28;20085;-85
2023/10/14 02:08:47;;;;;;;11.23;1.45;;;11.90;99.90;;;;;;5035309;28;20446;-86
2023/10/14 02:11:20;;;;;;;8.13;1.90;;;11.90;99.90;;;;;;5052288;28;20041;-86
2023/10/14 02:13:50;;;;;;;10.15;1.88;;;11.80;99.90;;;;;;5052005;28;20064;-85
2023/10/14 02:16:29;;;;;;;8.73;1.60;;;11.80;99.90;;;;;;5041340;28;20077;-85
2023/10/14 02:19:41;;;;;;;9.95;1.60;;;11.70;99.90;;;;;;5049084;28;20034;-85
2023/10/14 02:21:43;;;;;;;12.15;2.28;;;11.70;99.90;;;;;;5031601;28;20088;-86
2023/10/14 02:24:10;;;;;;;7.15;1.52;;;11.60;99.90;;;;;;5055425;28;20037;-85
2023/10/14 02:26:38;;;;;;;9.30;1.42;;;11.60;99.90;;;;;;5051781;28;20034;-85
2023/10/14 02:29:07;;;;;;;10.15;1.45;;;11.70;99.90;;;;;;5044745;28;20049;-86
2023/10/14 02:31:36;;;;;;;8.68;1.73;;;11.50;99.90;;;;;;5039495;28;20069;-85
2023/10/14 02:34:08;;;;;;;7.18;1.45;;;11.60;99.90;;;;;;5040426;28;20057;-85
2023/10/14 02:36:41;;;;;;;8.60;1.40;;;11.50;99.90;;;;;;5046717;28;20069;-85
2023/10/14 02:39:17;;;;;;;9.60;1.42;;;11.50;99.90;;;;;;5040960;28;20042;-85
2023/10/14 02:41:45;;;;;;;;;;;11.40;99.90;;;;;;5047369;28;20103;-85
2023/10/14 02:46:42;;;;;;;9.52;1.73;;;11.40;99.90;;;;;;5061795;28;20907;-86
2023/10/14 02:49:14;;;;;;;6.45;1.42;;;11.30;99.90;;;;;;5045195;28;20501;-85
2023/10/14 02:51:42;;;;;;;9.98;1.55;;;11.30;99.90;;;;;;5063791;28;20052;-85
2023/10/14 02:57:01;;;;;;;9.43;1.20;;;11.30;99.90;;;;;;5066415;28;20045;-85
2023/10/14 02:59:43;;;;;;;11.55;1.60;;;11.20;99.90;;;;;;5039745;28;20057;-85
2023/10/14 03:12:48;;;;;;;10.55;1.45;;;11.00;99.90;;;;;;5064042;28;20461;-85
2023/10/14 03:15:20;;;;;;;9.35;1.65;;;11.00;99.90;;;;;;5060197;28;20122;-85
2023/10/14 03:17:58;;;;;;;9.10;1.33;;;11.00;99.90;;;;;;5050945;28;20048;-85
2023/10/14 03:22:58;;;;;;;12.07;1.88;;;11.00;99.90;;;;;;5047610;28;20414;-85
2023/10/14 03:25:29;;;;;;;11.75;1.98;;;11.00;99.90;;;;;;5031146;28;20467;-85
2023/10/14 03:28:12;;;;;;;12.95;1.92;;;10.90;99.90;;;;;;5050670;28;20525;-85
2023/10/14 03:30:47;;;;;;;7.88;1.60;;;10.90;99.90;;;;;;5062919;28;20064;-85
2023/10/14 03:33:20;;;;;;;9.20;1.23;;;10.90;99.90;;;;;;5062785;28;20406;-85
2023/10/14 03:36:02;;;;;;;11.48;1.77;;;11.00;99.90;;;;;;5066974;28;20042;-85
2023/10/14 03:48:56;;;;;;;16.23;1.80;;;10.90;99.90;;;;;;5067080;28;20443;-85
2023/10/14 03:51:27;;;;;;;11.65;1.30;;;10.80;99.90;;;;;;5041846;28;20041;-85
2023/10/14 03:53:58;;;;;;;10.00;1.48;;;10.80;99.90;;;;;;5050578;28;20041;-85
2023/10/14 03:56:27;;;;;;;7.35;1.40;;;10.70;99.90;;;;;;5027986;28;20041;-85
2023/10/14 03:58:59;;;;;;;7.97;1.42;;;10.90;99.90;;;;;;5042023;28;20053;-85
2023/10/14 04:01:33;;;;;;;10.13;1.52;;;10.90;99.90;;;;;;5059799;28;20045;-85
2023/10/14 04:04:14;;;;;;;12.95;1.55;;;10.70;99.90;;;;;;5055942;28;20091;-85
2023/10/14 04:06:42;;;;;;;7.88;1.20;;;10.80;99.90;;;;;;5046033;28;20041;-85
2023/10/14 04:09:10;;;;;;;10.13;2.10;;;10.70;99.90;;;;;;5049898;28;20080;-85
2023/10/14 04:11:38;;;;;;;7.95;1.38;;;10.70;99.90;;;;;;5062153;28;20056;-85
2023/10/14 04:14:08;;;;;;;8.15;1.77;;;10.70;99.90;;;;;;5050368;28;20045;-85
2023/10/14 04:16:48;;;;;;;9.50;2.00;;;10.70;99.90;;;;;;5035208;28;20083;-85
2023/10/14 04:19:26;;;;;;;12.43;1.75;;;10.80;99.90;;;;;;5044811;28;20045;-85
2023/10/14 04:22:00;;;;;;;9.68;1.60;;;10.70;99.90;;;;;;5066820;28;20048;-85
2023/10/14 04:30:11;;;;;;;14.88;2.08;;;10.70;99.90;;;;;;4971938;28;20163;-85
2023/10/14 04:35:24;;;;;;;9.98;1.65;;;10.60;99.90;;;;;;4970867;29;20126;-85
2023/10/14 04:37:55;;;;;;;10.50;1.60;;;10.50;99.90;;;;;;4970752;29;20442;-84
2023/10/14 04:45:52;;;;;;;9.45;1.30;;;10.50;99.90;;;;;;4963701;28;20054;-85
2023/10/14 04:48:27;;;;;;;20.65;2.17;;;10.50;99.90;;;;;;4983514;29;20053;-85
2023/10/14 04:50:57;;;;;;;8.57;1.83;;;10.40;99.90;;;;;;4970572;29;20039;-84
2023/10/14 04:53:26;;;;;;;8.88;1.42;;;10.50;99.90;;;;;;4970937;29;20059;-85
2023/10/14 04:55:56;;;;;;;11.02;2.13;;;10.60;99.90;;;;;;4969211;28;20039;-85
2023/10/14 04:58:26;;;;;;;10.43;1.42;;;10.50;99.90;;;;;;4986893;28;20061;-85
2023/10/14 05:00:57;;;;;;;9.68;1.60;;;10.80;99.90;;;;;;4996475;28;20046;-85
2023/10/14 05:03:23;;;;;;;9.88;1.60;;;10.50;99.90;;;;;;4986094;28;20038;-85
2023/10/14 05:05:57;;;;;;;8.27;1.17;;;10.70;99.90;;;;;;5015762;28;20057;-84
2023/10/14 05:08:44;;;;;;;8.32;1.70;;;10.50;99.90;;;;;;5024343;28;20051;-85
2023/10/14 05:11:18;;;;;;;6.38;1.50;;;11.00;99.90;;;;;;5024008;28;20091;-85
2023/10/14 05:14:06;;;;;;;10.40;1.40;;;10.50;99.90;;;;;;5037437;28;20046;-85
2023/10/14 05:17:04;;;;;;;6.63;1.67;;;10.90;99.90;;;;;;5036823;28;20037;-85
2023/10/14 05:19:30;;;;;;;10.20;1.55;;;10.50;99.90;;;;;;5049419;28;20050;-85
2023/10/14 05:22:03;;;;;;;9.38;2.25;;;10.50;99.90;;;;;;5035187;28;20080;-85
2023/10/14 05:24:31;;;;;;;6.50;1.50;;;10.60;99.90;;;;;;5029487;28;20427;-85
2023/10/14 05:27:01;;;;;;;11.45;1.60;;;10.50;99.90;;;;;;5046233;28;21309;-85
2023/10/14 05:29:31;;;;;;;12.60;2.00;;;10.50;99.90;;;;;;5026599;28;20455;-85
2023/10/14 05:32:10;;;;;;;6.00;1.40;;;10.40;99.90;;;;;;5021010;28;20041;-85
2023/10/14 05:34:42;;;;;;;9.75;1.40;;;10.40;99.90;;;;;;5036712;28;20096;-85
2023/10/14 05:37:11;;;;;;;9.45;1.30;;;10.40;99.90;;;;;;5023873;28;20049;-85
2023/10/14 05:39:41;;;;;;;11.90;1.30;;;10.40;99.90;;;;;;5042430;28;20062;-85
2023/10/14 05:42:16;;;;;;;8.73;1.50;;;10.30;99.90;;;;;;5024909;28;20499;-85
2023/10/14 05:44:47;;;;;;;5.75;1.45;;;10.30;99.90;;;;;;5020330;28;20492;-85
2023/10/14 05:47:15;;;;;;;10.02;1.58;;;10.50;99.90;;;;;;5036579;28;20479;-85
2023/10/14 05:49:43;;;;;;;8.07;1.48;;;10.20;99.90;;;;;;5020582;28;20038;-85
2023/10/14 05:52:13;;;;;;;11.30;1.88;;;10.20;99.90;;;;;;5031601;28;20095;-84
2023/10/14 05:54:45;;;;;;;7.53;1.50;;;10.10;99.90;;;;;;5020037;28;20041;-85
2023/10/14 05:57:11;;;;;;;14.07;1.90;;;10.20;99.90;;;;;;5025660;28;20127;-85
2023/10/14 05:59:38;;;;;;;9.48;1.77;;;10.10;99.90;;;;;;5061222;28;20140;-85
2023/10/14 06:02:07;;;;;;;14.40;1.95;;;10.10;99.90;;;;;;5055700;28;20063;-85
2023/10/14 06:04:39;;;;;;;7.88;1.50;;;10.40;99.90;;;;;;5039175;28;20041;-84
2023/10/14 06:07:08;;;;;;;13.43;1.67;;;10.10;99.90;;;;;;5062723;28;20048;-84
2023/10/14 06:09:36;;;;;;;9.77;1.40;;;10.00;99.90;;;;;;5045432;28;20041;-84
2023/10/14 06:12:12;;;;;;;11.40;1.95;;;10.00;99.90;;;;;;5049036;28;20040;-85
2023/10/14 06:14:43;;;;;;;12.25;1.30;;;10.00;99.90;;;;;;5068598;28;20448;-85
2023/10/14 06:17:11;;;;;;;10.98;1.55;;;10.00;99.90;;;;;;5037703;28;20034;-85
2023/10/14 06:19:42;;;;;;;8.52;1.42;;;10.20;99.90;;;;;;5042098;28;20042;-85
2023/10/14 06:22:09;;;;;;;8.13;1.30;;;10.10;99.90;;;;;;5051976;28;20033;-85
2023/10/14 06:24:36;;;;;;;10.65;1.60;;;10.00;99.90;;;;;;5051854;28;20102;-85
2023/10/14 06:27:08;;;;;;;9.27;1.40;;;10.10;99.90;;;;;;5056531;28;20048;-84
2023/10/14 06:29:36;;;;;;;12.63;1.58;;;10.00;99.90;;;;;;5048221;28;20038;-85
2023/10/14 06:32:03;;;;;;;7.30;1.38;;;10.10;99.90;;;;;;5069886;28;20041;-85
2023/10/14 06:34:35;;;;;;;9.27;1.67;;;10.10;99.90;;;;;;5039613;28;20408;-84
2023/10/14 06:37:02;;;;;;;9.60;1.75;;;10.10;99.90;;;;;;5053721;28;20044;-85
2023/10/14 06:39:38;;;;;;;13.80;1.55;;;10.10;99.90;;;;;;5048303;28;20041;-84
2023/10/14 06:42:05;;;;;;;9.10;1.73;;;10.10;99.90;;;;;;5041005;28;20033;-84
2023/10/14 06:44:32;;;;;;;10.98;1.80;;;10.20;99.90;;;;;;5055570;28;20092;-85
2023/10/14 06:47:00;;;;;;;8.40;1.58;;;10.20;99.90;;;;;;5053431;28;20041;-85
2023/10/14 06:49:32;;;;;;;10.95;1.80;;;10.20;99.90;;;;;;5068072;28;20128;-85
2023/10/14 06:51:59;;;;;;;11.70;1.70;;;10.20;99.90;;;;;;5069718;28;20052;-84
2023/10/14 06:54:25;;;;;;;12.75;1.95;;;10.30;99.90;;;;;;5051227;28;20037;-84
2023/10/14 06:56:53;;;;;;;11.27;1.42;;;10.20;99.90;;;;;;5078984;28;20049;-85
2023/10/14 06:59:20;;;;;;;11.82;2.15;;;10.30;99.90;;;;;;5040608;28;20098;-85
2023/10/14 07:01:47;;;;;;;12.73;1.52;;;10.40;99.90;;;;;;5053286;28;20520;-87
2023/10/14 07:04:16;;;;;;;8.23;1.38;;;10.40;99.90;;;;;;5043488;28;20096;-86
2023/10/14 07:06:49;;;;;;;12.07;2.20;;;10.40;99.90;;;;;;5051238;28;20176;-85
2023/10/14 07:09:18;;;;;;;10.25;1.65;;;10.30;99.90;;;;;;5038798;28;20427;-86
2023/10/14 07:11:49;;;;;;;11.50;1.85;;;10.30;99.90;;;;;;5038141;28;20045;-86
2023/10/14 07:14:18;;;;;;;9.93;1.45;;;10.40;99.90;;;;;;5043809;28;20233;-83
2023/10/14 07:16:45;;;;;;;10.07;2.03;;;10.40;99.90;;;;;;5039340;28;20649;-85
2023/10/14 07:19:11;;;;;;;11.77;1.50;;;10.50;99.90;;;;;;5042390;28;20041;-86
2023/10/14 07:21:38;;;;;;;9.40;1.63;;;10.50;99.90;;;;;;5050824;28;20414;-86
2023/10/14 07:24:05;;;;;;;7.55;1.30;;;10.70;99.90;;;;;;5067186;28;20038;-86
2023/10/14 07:26:39;;;;;;;15.38;1.98;;;10.60;99.90;;;;;;5045282;28;20513;-84
2023/10/14 07:29:06;;;;;;;8.57;1.75;;;10.60;99.90;;;;;;5066729;28;20518;-85
2023/10/14 07:31:36;;;;;;;14.60;1.92;;;10.70;99.90;;;;;;5025727;28;20128;-85
2023/10/14 07:34:03;;;;;;;13.82;2.00;;;10.70;99.90;;;;;;5050546;28;20495;-85
2023/10/14 07:36:30;;;;;;;8.02;1.55;;;10.70;99.90;;;;;;5037665;28;20048;-85
2023/10/14 07:39:02;;;;;;;10.75;1.65;;;10.70;99.90;;;;;;5047626;28;20038;-85
2023/10/14 07:41:29;;;;;;;13.10;1.75;;;10.80;99.90;;;;;;5025167;28;20088;-86
2023/10/14 07:43:56;;;;;;;14.20;2.03;;;10.90;99.90;;;;;;5042965;28;20033;-86
2023/10/14 07:46:23;;;;;;;12.43;1.60;;;10.90;99.90;;;;;;5025736;28;20042;-85
2023/10/14 07:48:53;;;;;;;12.68;1.60;;;11.00;99.90;;;;;;5058412;28;20068;-85
2023/10/14 07:51:19;;;;;;;8.20;1.73;;;11.10;99.90;;;;;;5039342;28;20487;-86
2023/10/14 07:53:46;;;;;;;12.32;2.47;;;11.10;99.90;;;;;;5040808;28;20049;-86
2023/10/14 07:56:13;;;;;;;9.30;1.70;;;11.10;99.90;;;;;;5038187;28;20749;-85
2023/10/14 07:58:39;;;;;;;11.95;1.48;;;11.20;99.90;;;;;;5047286;28;20046;-84
2023/10/14 08:01:06;;;;;;;10.10;1.70;;;11.30;99.90;;;;;;5049236;28;20116;-85
2023/10/14 08:03:36;;;;;;;11.38;1.85;;;11.30;99.90;;;;;;5044710;28;20041;-86
2023/10/14 08:06:05;;;;;;;7.82;1.70;;;11.40;99.90;;;;;;5046662;28;20388;-86
2023/10/14 08:08:42;;;;;;;9.18;1.73;;;11.40;99.90;;;;;;5040414;28;20057;-86
2023/10/14 08:11:12;;;;;;;7.20;1.40;;;11.50;99.90;;;;;;5037341;28;20076;-86
2023/10/14 08:13:40;;;;;;;15.77;2.13;;;11.60;99.90;;;;;;5045347;28;20051;-86
2023/10/14 08:16:11;;;;;;;5.55;1.15;;;11.60;99.90;;;;;;5043710;28;20037;-86
2023/10/14 08:18:41;;;;;;;12.25;2.05;;;11.70;99.90;;;;;;5033786;28;20550;-86
2023/10/14 08:21:11;;;;;;;10.75;1.80;;;11.70;99.90;;;;;;5045985;28;20045;-86
2023/10/14 08:23:38;;;;;;;8.77;2.05;;;11.80;99.90;;;;;;5034794;28;20037;-86
2023/10/14 08:26:12;;;;;;;6.25;1.60;;;11.90;99.90;;;;;;5049873;28;20039;-85
2023/10/14 08:28:39;;;;;;;9.02;1.85;;;11.90;99.90;;;;;;5061741;28;20847;-86
2023/10/14 08:31:08;;;;;;;9.43;1.60;;;12.00;99.90;;;;;;5040473;28;20053;-86
2023/10/14 08:33:36;;;;;;;6.93;1.50;;;12.00;99.90;;;;;;5037298;28;20483;-86
2023/10/14 08:36:03;;;;;;;9.80;1.48;;;12.10;99.90;;;;;;5059726;28;20037;-85
2023/10/14 08:38:29;;;;;;;12.52;1.75;;;12.10;99.90;;;;;;5042916;28;20048;-85
2023/10/14 08:40:59;;;;;;;9.27;1.63;;;12.20;99.90;;;;;;5061304;28;20038;-85
2023/10/14 08:43:26;;;;;;;11.98;1.55;;;12.30;99.90;;;;;;5031129;28;20510;-86
2023/10/14 08:45:54;;;;;;;7.05;1.50;;;12.30;99.90;;;;;;5042937;28;20038;-85
2023/10/14 08:48:25;;;;;;;8.40;1.58;;;12.40;99.90;;;;;;5035900;28;20052;-86
2023/10/14 08:50:55;;;;;;;9.32;1.50;;;12.50;99.90;;;;;;5047760;28;20064;-86
2023/10/14 08:53:22;;;;;;;8.77;2.20;;;12.50;99.90;;;;;;5043385;28;20037;-85
2023/10/14 08:55:52;;;;;;;7.97;1.40;;;12.50;99.90;;;;;;5048783;28;20100;-86
2023/10/14 08:58:22;;;;;;;7.18;1.58;;;12.60;99.90;;;;;;5044216;28;20044;-85
2023/10/14 09:00:51;;;;;;;9.55;1.40;;;12.60;99.90;;;;;;5036307;28;20073;-86
2023/10/14 09:03:18;;;;;;;8.82;1.42;;;12.60;99.90;;;;;;5046097;28;20041;-86
2023/10/14 09:05:45;;;;;;;10.98;1.67;;;12.80;99.90;;;;;;5056625;28;20038;-87
2023/10/14 09:08:22;;;;;;;12.32;1.38;;;12.80;99.90;;;;;;5033431;28;20041;-87
2023/10/14 09:10:52;;;;;;;5.55;1.50;;;12.80;99.90;;;;;;5038452;28;20411;-85
2023/10/14 09:13:20;;;;;;;8.90;1.38;;;12.80;99.90;;;;;;5051064;28;20060;-86
2023/10/14 09:15:48;;;;;;;11.20;2.45;;;13.00;99.90;;;;;;5052266;28;20033;-86
2023/10/14 09:18:19;;;;;;;8.45;1.80;;;13.00;99.90;;;;;;5065248;28;20048;-85
2023/10/14 09:20:53;;;;;;;8.70;1.50;;;13.10;99.90;;;;;;5047107;28;20037;-84
2023/10/14 09:23:34;;;;;;;12.18;2.45;;;13.20;99.90;;;;;;5040643;28;20099;-85
2023/10/14 09:26:03;;;;;;;11.70;1.77;;;13.10;99.90;;;;;;5039306;28;20034;-83
2023/10/14 09:28:35;;;;;;;9.13;1.33;;;13.20;99.90;;;;;;5045760;28;20049;-84
2023/10/14 09:31:07;;;;;;;12.27;1.63;;;13.20;99.90;;;;;;5036248;28;20041;-83
2023/10/14 09:33:41;;;;;;;10.98;1.88;;;13.40;99.90;;;;;;5058464;28;20037;-84
2023/10/14 09:36:20;;;;;;;11.82;1.60;;;13.30;99.90;;;;;;5040862;28;20036;-85
2023/10/14 09:38:48;;;;;;;8.27;1.60;;;13.40;99.90;;;;;;5046055;28;20045;-84
2023/10/14 09:41:15;;;;;;;7.57;1.23;;;13.60;99.90;;;;;;5035789;28;20886;-82
2023/10/14 09:43:43;;;;;;;7.13;1.38;;;13.50;99.90;;;;;;5052362;28;20034;-83
2023/10/14 09:46:17;;;;;;;14.75;1.60;;;13.70;99.90;;;;;;5040029;28;20375;-84
2023/10/14 09:48:44;;;;;;;7.10;1.60;;;13.90;99.90;;;;;;5069017;28;20038;-83
2023/10/14 09:51:12;;;;;;;10.60;1.77;;;13.90;99.90;;;;;;5035930;28;20099;-84
2023/10/14 09:53:39;;;;;;;6.20;1.02;;;14.00;99.90;;;;;;5047381;28;20060;-83
2023/10/14 09:56:08;;;;;;;5.43;1.23;;;13.90;99.90;;;;;;5054622;28;20041;-83
2023/10/14 09:58:36;;;;;;;7.20;1.45;;;13.60;99.90;;;;;;5051676;28;20808;-83
2023/10/14 10:01:05;;;;;;;8.68;1.40;;;13.30;99.90;;;;;;5053962;28;20052;-83
2023/10/14 10:03:44;;;;;;;9.65;2.15;;;12.90;99.90;;;;;;5051710;28;20030;-83
2023/10/14 10:06:11;;;;;;;12.50;1.67;;;12.60;99.90;;;;;;5055063;28;20037;-83
2023/10/14 10:08:59;;;;;;;6.38;1.40;;;12.70;99.90;;;;;;5059256;28;20049;-83
2023/10/14 10:11:27;;;;;;;10.48;1.50;;;12.60;99.90;;;;;;5051067;28;20041;-83
2023/10/14 10:13:58;;;;;;;10.25;1.88;;;12.70;99.90;;;;;;5044504;28;20048;-83
2023/10/14 10:16:33;;;;;;;10.60;2.10;;;12.80;99.90;;;;;;5049816;28;20041;-84
2023/10/14 10:19:00;;;;;;;12.25;2.10;;;13.00;99.90;;;;;;5053499;28;20041;-83
2023/10/14 10:21:40;;;;;;;9.98;1.73;;;13.20;99.90;;;;;;5032017;28;20049;-83
2023/10/14 10:24:25;;;;;;;8.32;1.50;;;13.30;99.90;;;;;;5070360;28;20041;-83
2023/10/14 10:27:07;;;;;;;9.80;1.38;;;13.40;99.90;;;;;;5068814;28;20045;-83
2023/10/14 10:29:51;;;;;;;6.55;1.45;;;13.60;99.90;;;;;;5065703;28;20053;-84
2023/10/14 10:32:22;;;;;;;8.60;1.45;;;13.40;99.90;;;;;;5043967;28;20081;-83
2023/10/14 10:35:07;;;;;;;9.27;1.48;;;13.40;99.90;;;;;;5054243;28;20046;-83
2023/10/14 10:37:40;;;;;;;7.07;1.20;;;13.30;99.90;;;;;;5054228;28;20415;-83
2023/10/14 10:40:11;;;;;;;9.15;1.45;;;13.20;99.90;;;;;;5105108;28;20036;-83
2023/10/14 10:42:44;;;;;;;8.02;1.30;;;12.80;99.90;;;;;;5075656;28;20128;-83
2023/10/14 10:45:22;;;;;;;8.10;1.50;;;12.30;99.90;;;;;;5028385;28;20132;-83
2023/10/14 10:47:57;;;;;;;6.03;1.77;;;11.90;99.90;;;;;;5052026;28;20559;-84
2023/10/14 10:50:36;;;;;;;4.72;0.88;;;11.40;99.90;;;;;;5051330;28;20085;-83
2023/10/14 10:53:06;;;;;;;8.45;1.30;;;11.20;99.90;;;;;;5052936;28;20060;-83
2023/10/14 10:55:36;;;;;;;8.02;1.30;;;11.20;99.90;;;;;;5049990;28;20099;-83
2023/10/14 10:58:04;;;;;;;6.38;1.20;;;11.30;99.90;;;;;;5041837;28;20030;-82
2023/10/14 11:00:33;;;;;;;7.43;1.40;;;11.40;99.90;;;;;;5052798;28;20124;-83
2023/10/14 11:03:02;;;;;;;11.68;1.20;;;11.50;99.90;;;;;;5053075;28;20507;-82
2023/10/14 11:05:33;;;;;;;10.35;1.70;;;11.60;99.90;;;;;;5031076;28;20452;-83
2023/10/14 11:08:03;;;;;;;7.35;1.40;;;11.70;99.90;;;;;;5052644;28;20048;-83
2023/10/14 11:10:38;;;;;;;8.23;1.30;;;11.90;99.90;;;;;;5043923;28;20046;-83
2023/10/14 11:13:11;;;;;;;7.75;1.85;;;12.00;99.90;;;;;;5069651;28;20056;-82
2023/10/14 11:15:38;;;;;;;3.55;0.88;;;12.30;99.90;;;;;;5067402;28;20045;-83
2023/10/14 11:18:06;;;;;;;12.30;1.35;;;12.10;99.90;;;;;;5050145;28;20038;-83
2023/10/14 11:20:41;;;;;;;5.95;1.23;;;12.30;99.90;;;;;;5066911;28;20120;-82
2023/10/14 11:23:08;;;;;;;8.40;1.73;;;12.30;99.90;;;;;;5053674;28;20437;-82
2023/10/14 11:25:44;;;;;;;5.93;0.98;;;12.50;99.90;;;;;;5049009;28;20096;-83
2023/10/14 11:28:14;;;;;;;;;;;12.60;99.90;;;;;;5052203;28;20055;-82
2023/10/14 11:30:42;;;;;;;6.57;1.40;;;12.70;99.90;;;;;;5044902;28;20291;-83
2023/10/14 11:33:10;;;;;;;12.73;1.25;;;13.00;99.90;;;;;;5050661;28;20073;-82
2023/10/14 11:35:37;;;;;;;7.97;1.38;;;13.10;99.90;;;;;;5050109;28;20502;-83
2023/10/14 11:38:08;;;;;;;12.13;1.42;;;12.80;99.90;;;;;;5067872;28;20040;-83
2023/10/14 11:40:36;;;;;;;7.97;1.30;;;12.50;99.90;;;;;;5030297;28;20038;-83
2023/10/14 11:43:05;;;;;;;8.52;1.10;;;12.10;99.90;;;;;;5049589;28;20034;-83
2023/10/14 11:45:32;;;;;;;10.15;1.30;;;11.70;99.90;;;;;;5030620;28;20091;-83
2023/10/14 11:48:02;;;;;;;13.02;1.92;;;11.70;99.90;;;;;;5049004;28;20046;-83
2023/10/14 11:50:33;;;;;;;9.57;1.42;;;11.50;99.90;;;;;;5047436;28;20487;-83
2023/10/14 11:53:03;;;;;;;10.50;1.60;;;11.30;99.90;;;;;;5052029;28;20045;-83
2023/10/14 11:55:30;;;;;;;9.13;1.35;;;11.20;99.90;;;;;;5045467;28;20053;-83
2023/10/14 11:57:58;;;;;;;8.27;1.05;;;11.40;99.90;;;;;;5044519;28;20041;-83
2023/10/14 12:00:25;;;;;;;10.00;1.10;;;11.20;99.90;;;;;;5064054;28;20052;-82
2023/10/14 12:02:52;;;;;;;7.93;1.52;;;11.60;99.90;;;;;;5044438;28;20041;-82
2023/10/14 12:05:19;;;;;;;9.15;1.23;;;11.10;99.90;;;;;;5059437;28;20120;-82
2023/10/14 12:07:51;;;;;;;9.30;1.75;;;11.10;99.90;;;;;;5059992;28;20044;-82
2023/10/14 12:10:18;;;;;;;11.52;1.90;;;11.00;99.90;;;;;;5069731;28;20091;-82
2023/10/14 12:12:52;;;;;;;7.88;1.77;;;11.00;99.90;;;;;;5040275;28;20479;-83
2023/10/14 12:15:20;;;;;;;9.40;1.38;;;11.00;99.90;;;;;;5050046;28;20045;-82
2023/10/14 12:17:49;;;;;;;6.63;1.52;;;11.00;99.90;;;;;;5066370;28;20457;-83
2023/10/14 12:20:16;;;;;;;5.93;1.55;;;11.00;99.90;;;;;;5051729;28;20037;-82
2023/10/14 12:22:43;;;;;;;11.48;2.30;;;11.00;99.90;;;;;;5067117;28;20071;-82
2023/10/14 12:25:09;;;;;;;12.25;1.65;;;11.20;99.90;;;;;;5050192;28;20037;-83
2023/10/14 12:27:36;;;;;;;8.52;1.50;;;11.20;99.90;;;;;;5049238;28;20037;-81
2023/10/14 12:30:06;;;;;;;9.13;1.50;;;11.30;99.90;;;;;;5053308;28;20043;-82
2023/10/14 12:32:33;;;;;;;11.23;2.05;;;11.40;99.90;;;;;;5053083;28;20502;-82
2023/10/14 12:35:11;;;;;;;8.38;1.60;;;11.50;99.90;;;;;;5032610;28;20041;-82
2023/10/14 12:37:38;;;;;;;8.98;1.60;;;11.70;99.90;;;;;;5042786;28;20128;-82
2023/10/14 12:40:11;;;;;;;8.73;2.10;;;11.80;99.90;;;;;;5056408;28;20526;-82
2023/10/14 12:42:48;;;;;;;13.48;2.00;;;11.80;99.90;;;;;;5063885;28;20407;-82
2023/10/14 12:45:23;;;;;;;11.98;1.98;;;11.80;99.90;;;;;;5036911;28;20415;-82
2023/10/14 12:47:50;;;;;;;11.90;1.80;;;11.70;99.90;;;;;;5050368;28;20506;-82
2023/10/14 12:50:19;;;;;;;10.23;1.67;;;11.70;99.90;;;;;;5035377;28;20042;-82
2023/10/14 12:52:56;;;;;;;10.95;1.90;;;11.50;99.90;;;;;;5041620;28;20053;-86
2023/10/14 12:55:25;;;;;;;8.40;1.55;;;11.50;99.90;;;;;;5052334;28;20044;-86
2023/10/14 12:57:52;;;;;;;10.00;1.63;;;11.50;99.90;;;;;;5052782;28;20447;-85
2023/10/14 13:00:25;;;;;;;15.55;2.10;;;11.90;99.90;;;;;;5052610;28;20048;-85
2023/10/14 13:02:53;;;;;;;10.88;1.73;;;11.70;99.90;;;;;;5049354;28;20396;-85
2023/10/14 13:05:20;;;;;;;10.07;1.25;;;11.80;99.90;;;;;;5045936;28;20041;-84
2023/10/14 13:07:48;;;;;;;11.88;1.60;;;12.00;99.90;;;;;;5032840;28;20073;-85
2023/10/14 13:10:20;;;;;;;7.90;1.65;;;12.10;99.90;;;;;;5033060;28;20484;-85
2023/10/14 13:12:49;;;;;;;8.00;1.20;;;12.20;99.90;;;;;;5038766;28;20401;-86
2023/10/14 13:15:30;;;;;;;7.30;1.50;;;12.20;99.90;;;;;;5052879;28;20086;-85
2023/10/14 13:17:59;;;;;;;13.98;1.48;;;12.30;99.90;;;;;;5062998;28;20123;-86
2023/10/14 13:20:27;;;;;;;11.75;2.03;;;12.30;99.90;;;;;;5072702;28;20037;-85
2023/10/14 13:22:55;;;;;;;8.73;1.30;;;12.20;99.90;;;;;;5073081;28;20037;-86
2023/10/14 13:25:22;;;;;;;6.47;1.27;;;12.10;99.90;;;;;;5055695;28;20041;-85
2023/10/14 13:27:51;;;;;;;7.38;1.30;;;12.10;99.90;;;;;;5055929;28;20508;-85
2023/10/14 13:30:22;;;;;;;9.40;1.45;;;12.00;99.90;;;;;;5043299;28;20095;-85
2023/10/14 13:32:56;;;;;;;6.53;1.80;;;12.00;99.90;;;;;;5049904;28;20053;-85
2023/10/14 13:35:23;;;;;;;9.13;1.60;;;12.00;99.90;;;;;;5065316;28;20121;-85
2023/10/14 13:37:50;;;;;;;7.20;1.40;;;12.10;99.90;;;;;;5062880;28;20597;-84
2023/10/14 13:40:21;;;;;;;6.30;1.30;;;12.10;99.90;;;;;;5055786;28;20029;-85
2023/10/14 13:42:51;;;;;;;11.10;1.83;;;12.50;99.90;;;;;;5061422;28;20041;-85
2023/10/14 13:45:19;;;;;;;7.15;1.48;;;12.10;99.90;;;;;;5036198;28;20132;-84
2023/10/14 13:47:48;;;;;;;5.93;1.35;;;12.10;99.90;;;;;;5056209;28;20045;-84
2023/10/14 13:50:21;;;;;;;8.57;1.33;;;12.10;99.90;;;;;;5051604;28;20045;-84
2023/10/14 13:52:54;;;;;;;7.55;1.40;;;12.10;99.90;;;;;;5062200;28;20045;-85
2023/10/14 13:55:22;;;;;;;9.65;1.60;;;12.00;99.90;;;;;;5065276;28;20104;-84
2023/10/14 13:57:50;;;;;;;6.93;1.55;;;12.00;99.90;;;;;;5036328;28;20033;-85
2023/10/14 14:00:19;;;;;;;8.23;1.75;;;11.80;99.90;;;;;;5048118;28;20060;-84
2023/10/14 14:02:46;;;;;;;5.15;1.45;;;11.80;99.90;;;;;;5035697;28;20441;-85